Time;durP1;ratioP1;P1;durP2;ratioP2;P2;SDS_P1;SDS_P2;PMS_P1;PMS_P2;Temp;Humidity;BMP_temperature;BMP_pressure;BME280_temperature;BME280_humidity;BME280_pressure;Samples;Min_cycle;Max_cycle;Signal;HPM_P1;HPM_P2
2022/07/24 00:00:39;;;;;;;10.10;8.05;;;;;;;22.44;74.49;98780.94;4484189;31;20096;-73
2022/07/24 00:03:07;;;;;;;15.52;10.07;;;;;;;22.53;73.75;98776.19;4484446;31;20119;-73
2022/07/24 00:05:34;;;;;;;12.75;9.18;;;;;;;22.63;73.75;98770.38;4484189;31;20088;-73
2022/07/24 00:08:02;;;;;;;14.85;9.18;;;;;;;22.68;73.97;98771.34;4484200;31;20096;-74
2022/07/24 00:10:31;;;;;;;14.10;8.50;;;;;;;22.74;73.69;98776.84;4484837;31;20092;-73
2022/07/24 00:12:58;;;;;;;11.35;8.23;;;;;;;22.78;73.62;98789.56;4486241;31;20533;-73
2022/07/24 00:15:25;;;;;;;10.32;8.98;;;;;;;22.80;74.33;98792.84;4486394;31;20468;-74
2022/07/24 00:17:52;;;;;;;12.73;9.48;;;;;;;22.74;74.78;98803.56;4486382;31;20160;-74
2022/07/24 00:20:20;;;;;;;18.17;9.32;;;;;;;22.66;75.27;98805.47;4485984;31;20413;-74
2022/07/24 00:22:47;;;;;;;13.35;10.25;;;;;;;22.58;75.96;98821.75;4486108;31;20104;-74
2022/07/24 00:25:14;;;;;;;10.55;8.73;;;;;;;22.52;76.08;98816.44;4486285;32;20149;-73
2022/07/24 00:27:41;;;;;;;11.88;8.50;;;;;;;22.45;76.25;98817.31;4486176;31;20561;-73
2022/07/24 00:30:09;;;;;;;15.48;8.48;;;;;;;22.43;75.54;98816.69;4485974;32;20100;-73
2022/07/24 00:32:37;;;;;;;11.65;8.60;;;;;;;22.42;75.04;98817.72;4486107;31;20084;-74
2022/07/24 00:35:04;;;;;;;10.48;8.43;;;;;;;22.37;74.85;98820.19;4486248;31;20100;-73
2022/07/24 00:37:32;;;;;;;12.23;8.00;;;;;;;22.39;74.42;98822.66;4485938;31;20101;-73
2022/07/24 00:39:59;;;;;;;15.93;8.18;;;;;;;22.38;73.91;98821.84;4486099;31;20104;-73
2022/07/24 00:42:26;;;;;;;14.70;8.30;;;;;;;22.36;73.89;98817.75;4486215;31;20146;-74
2022/07/24 00:44:53;;;;;;;11.65;8.50;;;;;;;22.30;73.71;98820.22;4486108;31;20111;-74
2022/07/24 00:47:21;;;;;;;11.68;7.35;;;;;;;22.26;73.97;98820.84;4486019;32;20097;-73
2022/07/24 00:49:48;;;;;;;10.52;7.32;;;;;;;22.22;74.47;98820.44;4485946;31;20530;-74
2022/07/24 00:52:15;;;;;;;12.35;8.38;;;;;;;22.12;75.28;98810.22;4485782;32;20096;-74
2022/07/24 00:54:42;;;;;;;12.30;8.45;;;;;;;22.07;75.75;98810.00;4486145;32;20571;-74
2022/07/24 00:57:10;;;;;;;16.62;8.50;;;;;;;22.02;76.42;98801.03;4484636;32;20449;-74
2022/07/24 00:59:38;;;;;;;14.55;8.05;;;;;;;21.93;76.90;98801.25;4485856;32;20139;-74
2022/07/24 01:02:05;;;;;;;12.07;8.75;;;;;;;21.94;76.79;98788.75;4485787;32;20088;-73
2022/07/24 01:04:32;;;;;;;12.13;8.43;;;;;;;21.89;77.30;98785.88;4485997;31;20089;-74
2022/07/24 01:06:59;;;;;;;10.10;7.80;;;;;;;21.89;77.90;98775.19;4484610;32;20128;-73
2022/07/24 01:09:27;;;;;;;12.68;8.00;;;;;;;21.87;77.54;98777.28;4486320;32;20123;-73
2022/07/24 01:11:54;;;;;;;11.40;7.90;;;;;;;21.95;76.87;98779.69;4484496;32;20115;-73
2022/07/24 01:14:22;;;;;;;19.00;8.02;;;;;;;22.04;76.17;98782.94;4485898;31;20084;-73
2022/07/24 01:16:49;;;;;;;10.70;7.50;;;;;;;22.04;76.72;98793.62;4485745;32;20101;-73
2022/07/24 01:19:17;;;;;;;12.40;7.80;;;;;;;22.07;76.10;98794.00;4485784;31;20115;-74
2022/07/24 01:21:46;;;;;;;11.40;7.95;;;;;;;22.04;76.35;98781.09;4484853;31;20135;-73
2022/07/24 01:24:14;;;;;;;10.90;7.43;;;;;;;22.06;75.36;98784.38;4485715;32;20076;-73
2022/07/24 01:26:41;;;;;;;10.95;7.47;;;;;;;22.09;74.81;98786.63;4483216;31;77217;-73
2022/07/24 01:29:09;;;;;;;11.88;7.07;;;;;;;22.11;74.48;98789.91;4485645;31;20083;-73
2022/07/24 01:31:36;;;;;;;10.75;7.40;;;;;;;22.16;73.85;98775.91;4485543;32;20148;-73
2022/07/24 01:34:04;;;;;;;13.52;6.85;;;;;;;22.14;73.47;98778.81;4485770;31;20076;-74
2022/07/24 01:36:31;;;;;;;12.98;7.45;;;;;;;22.18;72.92;98779.22;4485622;31;20167;-73
2022/07/24 01:38:59;;;;;;;8.38;6.18;;;;;;;22.19;72.45;98762.16;4485575;31;20092;-73
2022/07/24 01:41:26;;;;;;;8.95;5.90;;;;;;;22.25;71.43;98763.16;4485571;32;20084;-73
2022/07/24 01:43:53;;;;;;;8.93;6.32;;;;;;;22.31;70.73;98762.34;4485619;32;20130;-73
2022/07/24 01:46:20;;;;;;;9.07;5.87;;;;;;;22.36;70.37;98759.03;4485779;32;20092;-73
2022/07/24 01:48:48;;;;;;;8.52;5.95;;;;;;;22.38;70.28;98765.78;4485519;31;20118;-73
2022/07/24 01:51:15;;;;;;;7.78;6.25;;;;;;;22.38;70.75;98773.81;4485234;32;20201;-73
2022/07/24 01:53:42;;;;;;;11.65;6.35;;;;;;;22.36;71.08;98775.84;4485583;31;20417;-73
2022/07/24 01:56:09;;;;;;;7.62;6.18;;;;;;;22.32;73.71;98774.66;4485711;31;20088;-74
2022/07/24 01:58:39;;;;;;;9.10;6.85;;;;;;;22.00;77.57;98766.56;4485497;31;20100;-74
2022/07/24 02:01:07;;;;;;;14.18;7.10;;;;;;;21.76;79.83;98768.88;4485530;32;20150;-74
2022/07/24 02:03:34;;;;;;;11.77;7.18;;;;;;;21.48;83.54;98768.31;4485374;31;20096;-74
2022/07/24 02:06:02;;;;;;;10.05;7.05;;;;;;;21.24;85.91;98770.59;4485422;31;20138;-74
2022/07/24 02:08:29;;;;;;;12.80;7.97;;;;;;;21.12;85.60;98775.75;4485393;31;20088;-74
2022/07/24 02:10:56;;;;;;;12.10;7.10;;;;;;;21.06;86.07;98765.87;4485385;31;20110;-74
2022/07/24 02:13:25;;;;;;;10.25;7.15;;;;;;;21.01;85.61;98769.16;4485356;31;20112;-74
2022/07/24 02:15:56;;;;;;;9.63;7.00;;;;;;;20.96;86.79;98774.28;4485436;31;20136;-74
2022/07/24 02:18:24;;;;;;;10.35;6.95;;;;;;;20.94;86.84;98771.03;4485401;31;20597;-74
2022/07/24 02:20:51;;;;;;;10.43;6.60;;;;;;;20.97;85.57;98777.75;4484968;31;20123;-74
2022/07/24 02:23:18;;;;;;;8.88;7.10;;;;;;;21.01;84.03;98779.00;4485247;31;20205;-74
2022/07/24 02:25:47;;;;;;;10.68;6.40;;;;;;;20.94;84.01;98779.00;4485272;32;20085;-74
2022/07/24 02:28:15;;;;;;;12.30;6.68;;;;;;;20.98;83.57;98774.09;4485194;31;20114;-74
2022/07/24 02:30:42;;;;;;;9.43;6.82;;;;;;;20.99;83.22;98779.22;4485181;31;20122;-74
2022/07/24 02:33:10;;;;;;;10.43;6.37;;;;;;;21.01;82.60;98769.16;4485029;31;20137;-74
2022/07/24 02:35:37;;;;;;;10.30;6.57;;;;;;;21.01;83.09;98771.00;4485194;31;20514;-74
2022/07/24 02:38:04;;;;;;;11.85;7.10;;;;;;;20.99;82.86;98763.22;4485229;31;20119;-74
2022/07/24 02:40:32;;;;;;;9.15;6.70;;;;;;;20.99;82.39;98733.94;4485093;32;20101;-74
2022/07/24 02:42:59;;;;;;;9.98;6.15;;;;;;;21.04;81.60;98725.31;4485209;31;20104;-74
2022/07/24 02:45:26;;;;;;;12.32;7.40;;;;;;;21.06;81.80;98723.25;4485206;31;20122;-74
2022/07/24 02:47:55;;;;;;;10.20;6.40;;;;;;;21.06;82.54;98717.94;4485156;31;20123;-74
2022/07/24 02:50:25;;;;;;;7.55;6.00;;;;;;;21.12;81.96;98717.12;4485013;31;20130;-74
2022/07/24 02:52:52;;;;;;;7.68;6.62;;;;;;;21.10;81.93;98727.16;4484996;31;20446;-74
2022/07/24 02:55:20;;;;;;;8.32;6.22;;;;;;;21.21;79.54;98736.37;4485231;31;20443;-74
2022/07/24 02:57:47;;;;;;;9.00;7.07;;;;;;;21.33;77.16;98729.38;4485198;31;20087;-74
2022/07/24 03:00:16;;;;;;;10.07;5.90;;;;;;;21.37;78.27;98713.81;4484944;32;20108;-74
2022/07/24 03:02:44;;;;;;;8.10;5.25;;;;;;;21.32;77.66;98706.44;4485091;31;20160;-74
2022/07/24 03:05:11;;;;;;;9.98;6.43;;;;;;;21.27;78.25;98725.72;4484881;31;20100;-74
2022/07/24 03:07:38;;;;;;;10.38;6.25;;;;;;;21.22;78.05;98728.16;4484963;31;20096;-74
2022/07/24 03:10:08;;;;;;;8.60;6.07;;;;;;;21.15;77.88;98723.88;4484941;32;20088;-74
2022/07/24 03:12:35;;;;;;;7.50;5.95;;;;;;;21.13;78.06;98720.59;4485365;31;20088;-74
2022/07/24 03:15:03;;;;;;;9.93;6.45;;;;;;;21.20;77.73;98718.75;4484772;31;20502;-74
2022/07/24 03:17:30;;;;;;;7.35;6.22;;;;;;;21.30;77.11;98716.47;4484999;32;20485;-74
2022/07/24 03:19:57;;;;;;;7.97;6.00;;;;;;;21.38;77.11;98720.78;4484713;31;20088;-74
2022/07/24 03:22:25;;;;;;;9.05;6.68;;;;;;;21.43;77.22;98718.28;4484689;31;20084;-74
2022/07/24 03:24:52;;;;;;;8.93;6.28;;;;;;;21.43;77.17;98703.13;4484685;31;20116;-74
2022/07/24 03:27:20;;;;;;;9.10;6.62;;;;;;;21.47;77.23;98705.34;4484826;32;20544;-74
2022/07/24 03:29:47;;;;;;;11.43;6.22;;;;;;;21.50;76.97;98702.31;4484732;31;20458;-74
2022/07/24 03:32:15;;;;;;;8.45;5.93;;;;;;;21.51;76.10;98685.28;4484596;32;20454;-74
2022/07/24 03:34:42;;;;;;;8.73;6.93;;;;;;;21.57;74.89;98687.94;4484571;31;20116;-74
2022/07/24 03:37:09;;;;;;;10.23;6.00;;;;;;;21.66;74.38;98706.37;4484756;32;20092;-75
2022/07/24 03:39:36;;;;;;;7.22;5.80;;;;;;;21.73;73.38;98710.66;4484597;31;20096;-74
2022/07/24 03:42:03;;;;;;;8.63;6.20;;;;;;;21.77;72.95;98719.87;4484737;32;20096;-74
2022/07/24 03:44:31;;;;;;;10.18;6.18;;;;;;;21.83;72.95;98733.38;4484142;31;20108;-74
2022/07/24 03:46:58;;;;;;;7.18;5.90;;;;;;;21.79;72.94;98736.47;4484150;32;20421;-74
2022/07/24 03:49:25;;;;;;;8.63;5.78;;;;;;;21.75;73.61;98729.91;4484512;31;20467;-75
2022/07/24 03:51:54;;;;;;;10.38;6.47;;;;;;;21.73;73.88;98731.97;4484191;32;20174;-74
2022/07/24 03:54:21;;;;;;;10.15;6.28;;;;;;;21.69;74.21;98733.41;4484236;32;20116;-74
2022/07/24 03:56:49;;;;;;;8.82;6.32;;;;;;;21.70;74.17;98735.06;4484430;31;20096;-74
2022/07/24 03:59:17;;;;;;;11.35;6.05;;;;;;;21.70;74.17;98739.59;4484365;31;20444;-74
2022/07/24 04:01:44;;;;;;;9.68;6.32;;;;;;;21.71;74.21;98739.38;4484695;31;20637;-74
2022/07/24 04:04:12;;;;;;;9.30;6.05;;;;;;;21.73;74.38;98739.97;4484327;32;20131;-74
2022/07/24 04:06:43;;;;;;;10.88;6.80;;;;;;;21.72;75.05;98743.66;4484248;31;20735;-74
2022/07/24 04:09:10;;;;;;;7.20;6.32;;;;;;;21.72;75.77;98743.66;4484598;31;20477;-74
2022/07/24 04:11:37;;;;;;;17.87;6.72;;;;;;;21.67;76.67;98740.81;4484136;31;20107;-74
2022/07/24 04:14:05;;;;;;;9.27;6.28;;;;;;;21.72;76.94;98741.00;4484031;32;20511;-74
2022/07/24 04:16:32;;;;;;;9.27;7.15;;;;;;;21.78;76.94;98737.50;4484343;32;20088;-74
2022/07/24 04:18:59;;;;;;;13.82;7.03;;;;;;;21.77;76.79;98735.87;4484235;31;20517;-74
2022/07/24 04:21:32;;;;;;;8.63;6.37;;;;;;;21.83;76.42;98733.38;4483882;31;20096;-74
2022/07/24 04:24:00;;;;;;;9.70;6.85;;;;;;;21.88;76.07;98738.91;4484131;31;20154;-74
2022/07/24 04:26:27;;;;;;;9.20;7.18;;;;;;;21.91;75.24;98730.50;4484126;32;20080;-74
2022/07/24 04:28:54;;;;;;;10.75;6.87;;;;;;;21.94;74.96;98746.06;4483831;31;20517;-74
2022/07/24 04:31:21;;;;;;;11.27;6.45;;;;;;;22.00;74.99;98729.22;4483791;32;20096;-74
2022/07/24 04:33:53;;;;;;;9.30;6.90;;;;;;;22.07;74.70;98734.50;4483777;32;20240;-74
2022/07/24 04:36:20;;;;;;;11.77;6.87;;;;;;;22.06;74.80;98743.53;4483804;31;20114;-74
2022/07/24 04:38:47;;;;;;;11.10;7.18;;;;;;;22.05;74.82;98753.41;4483771;32;20126;-74
2022/07/24 04:41:17;;;;;;;9.52;7.30;;;;;;;21.98;74.83;98757.94;4483691;32;20092;-74
2022/07/24 04:43:44;;;;;;;11.12;6.87;;;;;;;21.98;74.47;98758.78;4483710;31;20100;-74
2022/07/24 04:46:12;;;;;;;10.63;6.72;;;;;;;22.01;74.59;98762.84;4483559;32;20123;-74
2022/07/24 04:48:39;;;;;;;11.45;7.05;;;;;;;22.00;75.03;98774.56;4483608;31;20088;-74
2022/07/24 04:51:06;;;;;;;8.55;7.18;;;;;;;22.00;75.37;98777.22;4483304;31;20118;-74
2022/07/24 04:53:34;;;;;;;10.90;6.68;;;;;;;22.05;75.51;98788.06;4483668;31;20126;-74
2022/07/24 04:56:01;;;;;;;13.20;6.90;;;;;;;22.05;75.73;98789.94;4483389;31;20123;-74
2022/07/24 04:58:28;;;;;;;11.00;7.22;;;;;;;22.01;76.04;98792.19;4485178;31;20115;-74
2022/07/24 05:00:55;;;;;;;11.68;6.93;;;;;;;21.98;76.45;98801.44;4485984;32;20153;-74
2022/07/24 05:03:23;;;;;;;22.95;8.10;;;;;;;22.00;76.59;98792.41;4486096;32;20437;-74
2022/07/24 05:05:50;;;;;;;10.95;7.15;;;;;;;22.02;76.93;98801.03;4485668;31;20164;-74
2022/07/24 05:08:17;;;;;;;11.00;6.93;;;;;;;21.98;77.26;98797.94;4485817;32;20141;-74
2022/07/24 05:10:44;;;;;;;10.50;7.20;;;;;;;22.03;77.48;98797.31;4485730;32;20088;-74
2022/07/24 05:13:12;;;;;;;10.55;7.50;;;;;;;22.05;77.63;98806.75;4485899;32;20096;-74
2022/07/24 05:15:39;;;;;;;9.55;7.18;;;;;;;22.07;77.81;98810.00;4485703;31;20096;-74
2022/07/24 05:18:06;;;;;;;11.77;6.90;;;;;;;22.10;77.86;98806.94;4485986;31;20084;-74
2022/07/24 05:20:33;;;;;;;13.45;7.97;;;;;;;22.10;78.52;98811.44;4485388;31;20084;-74
2022/07/24 05:23:01;;;;;;;10.65;7.65;;;;;;;21.99;79.41;98818.25;4485882;32;20108;-74
2022/07/24 05:25:28;;;;;;;10.82;7.78;;;;;;;22.06;79.47;98820.91;4485794;31;20150;-74
2022/07/24 05:27:55;;;;;;;9.38;7.70;;;;;;;22.01;79.76;98829.53;4485868;32;20552;-74
2022/07/24 05:30:22;;;;;;;11.07;7.47;;;;;;;22.07;79.83;98825.22;4485745;32;20137;-74
2022/07/24 05:32:49;;;;;;;14.65;7.87;;;;;;;22.14;79.55;98821.50;4485931;31;20477;-74
2022/07/24 05:35:17;;;;;;;12.60;7.93;;;;;;;22.18;79.25;98823.72;4485665;31;20440;-74
2022/07/24 05:37:55;;;;;;;11.82;8.20;;;;;;;22.35;78.45;98838.28;4486015;32;20080;-74
2022/07/24 05:40:22;;;;;;;10.43;7.62;;;;;;;22.39;78.35;98842.19;4485611;31;20084;-74
2022/07/24 05:42:50;;;;;;;15.07;8.15;;;;;;;22.68;77.12;98842.66;4485687;31;20096;-74
2022/07/24 05:45:17;;;;;;;12.27;7.65;;;;;;;22.93;75.24;98844.56;4485623;32;20142;-74
2022/07/24 05:47:44;;;;;;;10.55;8.18;;;;;;;23.05;74.74;98850.84;4485615;31;20163;-74
2022/07/24 05:50:12;;;;;;;10.38;8.13;;;;;;;23.23;73.88;98841.28;4485494;31;20153;-74
2022/07/24 05:52:41;;;;;;;11.18;8.43;;;;;;;23.40;72.70;98845.03;4485284;31;20210;-74
2022/07/24 05:55:08;;;;;;;11.07;8.48;;;;;;;23.38;72.60;98841.78;4485580;31;20084;-74
2022/07/24 05:57:46;;;;;;;13.02;8.13;;;;;;;23.46;72.08;98846.84;4485462;32;20093;-74
2022/07/24 06:00:18;;;;;;;12.25;8.32;;;;;;;23.68;71.95;98843.75;4485415;31;20106;-74
2022/07/24 06:02:50;;;;;;;14.77;8.82;;;;;;;23.81;70.93;98845.50;4485538;31;20127;-74
2022/07/24 06:05:17;;;;;;;12.75;9.50;;;;;;;24.08;70.13;98841.50;4485468;31;20375;-74
2022/07/24 06:07:44;;;;;;;9.85;8.80;;;;;;;24.19;69.04;98842.63;4485197;31;20100;-74
2022/07/24 06:10:12;;;;;;;13.30;9.07;;;;;;;24.42;68.36;98857.19;4485339;32;20145;-74
2022/07/24 06:12:41;;;;;;;13.57;9.25;;;;;;;24.54;67.48;98851.88;4485358;31;20097;-74
2022/07/24 06:15:08;;;;;;;15.55;8.90;;;;;;;24.54;67.66;98857.25;4485316;31;20108;-74
2022/07/24 06:17:36;;;;;;;13.02;8.65;;;;;;;24.59;67.58;98862.78;4485619;31;20114;-74
2022/07/24 06:20:05;;;;;;;13.13;9.27;;;;;;;24.86;66.93;98867.75;4485305;31;20089;-74
2022/07/24 06:22:32;;;;;;;11.30;9.00;;;;;;;24.97;66.27;98869.69;4485037;31;20563;-74
2022/07/24 06:24:59;;;;;;;10.85;8.70;;;;;;;24.96;66.06;98873.41;4485406;32;20164;-74
2022/07/24 06:27:26;;;;;;;18.25;9.73;;;;;;;24.89;66.43;98878.03;4485112;31;20479;-74
2022/07/24 06:29:53;;;;;;;10.95;9.55;;;;;;;24.72;66.55;98878.66;4485329;31;20092;-74
2022/07/24 06:32:23;;;;;;;15.75;9.55;;;;;;;24.92;66.04;98878.41;4485111;32;20509;-74
2022/07/24 06:34:50;;;;;;;16.90;9.82;;;;;;;25.07;65.03;98890.56;4485439;31;20135;-74
2022/07/24 06:37:17;;;;;;;14.60;11.00;;;;;;;24.96;64.86;98886.78;4485125;31;20114;-74
2022/07/24 06:39:47;;;;;;;15.98;11.40;;;;;;;24.89;65.03;98889.59;4485282;31;20100;-74
2022/07/24 06:42:14;;;;;;;11.23;9.45;;;;;;;24.84;64.96;98885.94;4485049;32;20574;-74
2022/07/24 06:44:41;;;;;;;13.18;10.20;;;;;;;24.99;64.98;98894.38;4485256;31;20103;-74
2022/07/24 06:47:08;;;;;;;11.50;10.07;;;;;;;25.04;65.16;98896.37;4485100;31;20076;-74
2022/07/24 06:49:35;;;;;;;12.15;10.35;;;;;;;25.02;64.29;98895.78;4485155;31;20156;-74
2022/07/24 06:52:03;;;;;;;14.07;10.70;;;;;;;24.93;64.78;98901.47;4484834;31;20093;-74
2022/07/24 06:54:30;;;;;;;13.62;9.93;;;;;;;25.02;64.52;98898.47;4485172;31;20143;-74
2022/07/24 06:56:57;;;;;;;12.13;10.25;;;;;;;25.18;64.54;98908.56;4484992;31;20159;-74
2022/07/24 06:59:24;;;;;;;14.25;10.70;;;;;;;25.11;64.19;98897.91;4485114;31;20393;-74
2022/07/24 07:01:52;;;;;;;13.30;9.88;;;;;;;25.29;63.31;98899.72;4484789;32;20096;-74
2022/07/24 07:04:19;;;;;;;14.52;10.50;;;;;;;25.52;62.68;98908.06;4485081;31;20093;-74
2022/07/24 07:06:46;;;;;;;13.48;10.45;;;;;;;25.70;62.58;98907.16;4484837;31;20167;-74
2022/07/24 07:09:14;;;;;;;14.07;10.70;;;;;;;25.64;62.00;98900.84;4485046;31;20108;-74
2022/07/24 07:11:41;;;;;;;13.85;10.73;;;;;;;25.89;61.62;98907.84;4484770;31;20114;-74
2022/07/24 07:14:08;;;;;;;12.37;9.63;;;;;;;25.86;60.29;98909.94;4485129;31;20424;-74
2022/07/24 07:16:41;;;;;;;12.82;10.73;;;;;;;25.88;60.50;98909.72;4484865;31;20092;-74
2022/07/24 07:19:08;;;;;;;13.62;10.45;;;;;;;26.12;60.14;98902.50;4484977;31;20148;-74
2022/07/24 07:21:37;;;;;;;17.58;10.15;;;;;;;26.30;59.15;98909.59;4483358;31;20089;-74
2022/07/24 07:24:05;;;;;;;13.48;10.48;;;;;;;26.65;58.43;98903.31;4485071;31;20084;-74
2022/07/24 07:26:32;;;;;;;13.90;9.90;;;;;;;26.86;55.91;98901.03;4484764;31;20093;-74
2022/07/24 07:28:59;;;;;;;11.82;10.05;;;;;;;27.04;55.70;98903.53;4484855;31;20092;-74
2022/07/24 07:31:27;;;;;;;14.18;10.40;;;;;;;27.02;54.76;98908.31;4484701;31;20119;-74
2022/07/24 07:33:54;;;;;;;13.10;10.10;;;;;;;27.06;55.28;98904.09;4484793;32;20096;-74
2022/07/24 07:36:22;;;;;;;13.07;10.70;;;;;;;27.35;54.69;98897.91;4484603;31;20108;-74
2022/07/24 07:38:49;;;;;;;12.45;10.43;;;;;;;27.58;53.31;98894.22;4484632;32;20096;-74
2022/07/24 07:41:19;;;;;;;13.13;10.38;;;;;;;27.68;53.13;98893.56;4484597;31;20139;-74
2022/07/24 07:43:49;;;;;;;16.95;9.68;;;;;;;27.70;51.29;98897.63;4484571;31;20160;-74
2022/07/24 07:46:16;;;;;;;13.75;9.43;;;;;;;27.43;51.60;98906.38;4484534;31;20108;-74
2022/07/24 07:48:43;;;;;;;13.30;10.13;;;;;;;27.28;51.91;98895.31;4484367;31;20115;-74
2022/07/24 07:51:11;;;;;;;12.27;10.10;;;;;;;27.42;51.19;98902.06;4484476;31;21124;-74
2022/07/24 07:53:38;;;;;;;11.98;10.60;;;;;;;27.69;50.39;98901.41;4484447;31;20097;-74
2022/07/24 07:56:05;;;;;;;11.52;9.65;;;;;;;27.48;50.64;98902.13;4484525;31;20101;-74
2022/07/24 07:58:33;;;;;;;12.52;10.20;;;;;;;27.65;49.54;98897.56;4484225;31;20092;-74
2022/07/24 08:01:00;;;;;;;14.23;10.30;;;;;;;28.00;49.77;98898.38;4484166;31;20096;-74
2022/07/24 08:03:28;;;;;;;13.43;10.55;;;;;;;27.97;49.19;98900.47;4484230;32;20089;-74
2022/07/24 08:05:55;;;;;;;11.75;10.13;;;;;;;27.73;50.35;98905.22;4484316;31;20122;-74
2022/07/24 08:08:25;;;;;;;12.35;9.70;;;;;;;27.83;51.08;98912.63;4484297;31;20071;-74
2022/07/24 08:10:53;;;;;;;13.35;10.10;;;;;;;27.91;48.94;98900.62;4484256;31;20393;-74
2022/07/24 08:13:20;;;;;;;11.50;9.05;;;;;;;27.82;49.40;98905.63;4484032;31;20104;-74
2022/07/24 08:15:47;;;;;;;10.55;9.52;;;;;;;27.94;48.48;98905.53;4484415;31;20115;-74
2022/07/24 08:18:15;;;;;;;10.98;9.50;;;;;;;27.99;48.61;98900.22;4484002;31;20473;-74
2022/07/24 08:20:45;;;;;;;11.18;9.07;;;;;;;27.95;48.39;98915.25;4483839;32;20753;-74
2022/07/24 08:23:12;;;;;;;11.63;9.20;;;;;;;27.65;49.77;98908.31;4484123;31;20520;-74
2022/07/24 08:25:40;;;;;;;9.75;8.65;;;;;;;27.75;49.50;98916.56;4483988;31;20463;-74
2022/07/24 08:28:07;;;;;;;10.77;9.15;;;;;;;27.68;48.30;98910.53;4483930;31;20088;-74
2022/07/24 08:30:34;;;;;;;10.60;8.75;;;;;;;27.78;47.78;98904.47;4483824;31;20092;-73
2022/07/24 08:33:02;;;;;;;9.60;8.60;;;;;;;27.83;47.89;98917.19;4485824;31;20537;-74
2022/07/24 08:35:29;;;;;;;9.38;8.40;;;;;;;28.05;47.21;98909.19;4486254;31;20149;-74
2022/07/24 08:38:00;;;;;;;10.35;8.90;;;;;;;27.66;47.39;98906.44;4485867;32;20453;-74
2022/07/24 08:40:36;;;;;;;10.75;9.20;;;;;;;27.80;47.11;98905.06;4485988;31;20120;-74
2022/07/24 08:43:05;;;;;;;13.93;8.15;;;;;;;27.85;47.65;98912.38;4485944;31;20171;-74
2022/07/24 08:45:38;;;;;;;12.48;9.50;;;;;;;27.98;46.90;98912.09;4486121;31;20097;-74
2022/07/24 08:48:08;;;;;;;12.27;9.38;;;;;;;28.00;47.26;98926.09;4485968;31;20144;-74
2022/07/24 08:50:38;;;;;;;12.15;8.10;;;;;;;28.19;47.18;98920.41;4485638;32;20100;-74
2022/07/24 08:53:06;;;;;;;10.85;8.07;;;;;;;28.21;46.36;98915.62;4485945;31;20127;-74
2022/07/24 08:55:33;;;;;;;10.85;8.85;;;;;;;28.10;46.36;98920.88;4485972;32;20105;-74
2022/07/24 08:58:01;;;;;;;11.25;8.77;;;;;;;28.16;46.61;98929.81;4485901;31;20127;-74
2022/07/24 09:00:30;;;;;;;9.60;8.55;;;;;;;28.13;46.72;98927.59;4485788;31;20097;-74
2022/07/24 09:02:57;;;;;;;12.02;9.43;;;;;;;28.04;46.55;98932.63;4485819;31;20513;-74
2022/07/24 09:05:25;;;;;;;13.90;8.30;;;;;;;28.07;46.40;98934.00;4485946;31;20168;-74
2022/07/24 09:08:12;;;;;;;9.98;8.85;;;;;;;28.00;47.18;98928.00;4485828;31;20092;-74
2022/07/24 09:10:39;;;;;;;10.13;9.05;;;;;;;28.25;46.43;98932.91;4484651;32;20165;-74
2022/07/24 09:13:15;;;;;;;10.07;8.63;;;;;;;28.57;45.54;98935.75;4484738;32;20498;-74
2022/07/24 09:15:47;;;;;;;10.02;8.32;;;;;;;28.63;45.01;98939.31;4485819;32;20115;-74
2022/07/24 09:18:31;;;;;;;10.25;8.75;;;;;;;28.74;44.30;98934.91;4485723;31;20462;-74
2022/07/24 09:21:11;;;;;;;9.82;8.40;;;;;;;28.94;43.37;98935.09;4484213;32;20146;-74
2022/07/24 09:23:40;;;;;;;11.43;8.70;;;;;;;28.97;43.85;98939.19;4485655;31;20092;-74
2022/07/24 09:26:08;;;;;;;12.30;8.75;;;;;;;29.12;43.03;98930.44;4485828;31;20092;-74
2022/07/24 09:28:54;;;;;;;11.12;8.60;;;;;;;29.14;42.62;98939.88;4485911;31;20068;-74
2022/07/24 09:31:23;;;;;;;10.68;7.78;;;;;;;29.36;40.92;98941.75;4485721;31;20123;-74
2022/07/24 09:33:50;;;;;;;8.15;7.35;;;;;;;29.42;40.31;98956.91;4484638;32;20126;-74
2022/07/24 09:36:18;;;;;;;8.88;7.70;;;;;;;29.71;39.84;98948.50;4486111;31;20116;-74
2022/07/24 09:38:50;;;;;;;13.75;8.20;;;;;;;29.35;39.80;98946.31;4485656;32;20143;-74
2022/07/24 09:41:24;;;;;;;11.25;8.32;;;;;;;29.49;40.88;98952.09;4485630;31;20080;-74
2022/07/24 09:44:02;;;;;;;11.60;8.05;;;;;;;29.61;40.45;98956.53;4484934;31;20127;-74
2022/07/24 09:47:06;;;;;;;8.88;7.97;;;;;;;29.36;40.68;98953.34;4485681;31;20084;-74
2022/07/24 09:49:34;;;;;;;8.88;7.90;;;;;;;29.67;39.88;98963.59;4485778;31;20133;-74
2022/07/24 09:52:10;;;;;;;8.82;7.93;;;;;;;29.49;39.71;98954.81;4485304;31;20096;-74
2022/07/24 09:54:43;;;;;;;8.85;7.05;;;;;;;29.49;39.94;98959.41;4485468;32;20217;-74
2022/07/24 09:57:29;;;;;;;10.25;7.62;;;;;;;29.53;38.99;98957.81;4485644;32;20080;-74
2022/07/24 09:59:59;;;;;;;8.73;7.32;;;;;;;29.51;38.94;98946.47;4485597;31;20084;-74
2022/07/24 10:02:31;;;;;;;9.23;7.37;;;;;;;29.41;38.53;98944.47;4485469;31;20084;-74
2022/07/24 10:05:00;;;;;;;9.65;7.40;;;;;;;28.93;39.28;98948.84;4485593;32;20192;-74
2022/07/24 10:07:28;;;;;;;8.85;8.05;;;;;;;29.12;39.25;98958.22;4485382;31;20083;-74
2022/07/24 10:09:57;;;;;;;8.93;7.20;;;;;;;29.31;38.89;98956.00;4485389;31;20081;-74
2022/07/24 10:12:26;;;;;;;9.40;7.43;;;;;;;29.38;38.53;98953.09;4485450;31;20435;-74
2022/07/24 10:14:56;;;;;;;10.90;7.75;;;;;;;29.41;38.99;98949.87;4485449;31;20084;-74
2022/07/24 10:17:40;;;;;;;8.55;7.65;;;;;;;29.64;38.78;98943.31;4485454;32;20135;-74
2022/07/24 10:20:08;;;;;;;12.15;7.95;;;;;;;29.38;39.18;98942.31;4485445;31;20179;-74
2022/07/24 10:23:04;;;;;;;7.87;7.05;;;;;;;29.35;39.36;98945.50;4484220;32;20096;-74
2022/07/24 10:25:52;;;;;;;7.68;6.68;;;;;;;29.52;37.46;98951.63;4485556;31;20112;-74
2022/07/24 10:28:34;;;;;;;7.75;6.75;;;;;;;29.28;37.69;98961.09;4485410;31;20114;-74
2022/07/24 10:31:04;;;;;;;12.07;6.78;;;;;;;29.25;37.32;98950.81;4485221;31;20088;-74
2022/07/24 10:33:31;;;;;;;9.82;7.28;;;;;;;29.17;37.01;98960.16;4483928;32;20231;-74
2022/07/24 10:36:00;;;;;;;7.37;6.50;;;;;;;28.97;37.99;98961.56;4485461;31;20092;-74
2022/07/24 10:38:40;;;;;;;6.90;6.00;;;;;;;28.92;37.74;98960.69;4484098;32;20145;-74
2022/07/24 10:41:15;;;;;;;8.32;6.53;;;;;;;29.01;36.82;98956.50;4484249;32;20103;-74
2022/07/24 10:44:16;;;;;;;9.05;6.65;;;;;;;29.22;37.48;98959.41;4484022;32;20449;-74
2022/07/24 10:47:05;;;;;;;8.65;7.03;;;;;;;29.42;37.49;98964.19;4485323;31;20098;-74
2022/07/24 10:49:49;;;;;;;9.20;6.50;;;;;;;29.33;36.98;98955.75;4485358;32;20088;-74
2022/07/24 10:52:28;;;;;;;10.35;7.10;;;;;;;29.18;36.94;98938.31;4485119;32;20080;-74
2022/07/24 10:55:24;;;;;;;9.68;7.03;;;;;;;29.07;36.83;98949.25;4485043;32;20455;-74
2022/07/24 10:58:02;;;;;;;7.87;7.10;;;;;;;29.54;37.30;98949.47;4485260;31;20489;-74
2022/07/24 11:00:34;;;;;;;9.75;7.12;;;;;;;29.86;37.11;98943.25;4484906;31;20111;-74
2022/07/24 11:03:17;;;;;;;10.55;7.40;;;;;;;29.66;37.13;98948.47;4485172;31;20076;-74
2022/07/24 11:06:02;;;;;;;7.47;6.57;;;;;;;29.64;36.90;98943.31;4485172;31;20153;-74
2022/07/24 11:08:35;;;;;;;8.32;7.00;;;;;;;29.58;36.63;98946.25;4485026;31;20115;-74
2022/07/24 11:11:10;;;;;;;7.32;6.62;;;;;;;29.52;37.08;98939.97;4485060;31;20114;-74
2022/07/24 11:13:37;;;;;;;8.20;6.40;;;;;;;29.36;36.29;98934.47;4485006;31;20080;-74
2022/07/24 11:16:11;;;;;;;8.93;6.32;;;;;;;29.31;35.44;98941.69;4485176;31;20104;-74
2022/07/24 11:19:00;;;;;;;7.20;6.50;;;;;;;29.56;35.74;98933.81;4484902;31;20111;-74
2022/07/24 11:21:43;;;;;;;5.82;5.20;;;;;;;29.42;35.99;98938.03;4484336;32;20118;-74
2022/07/24 11:24:21;;;;;;;6.20;5.33;;;;;;;29.72;33.24;98939.31;4485028;31;20490;-74
2022/07/24 11:26:55;;;;;;;10.60;5.62;;;;;;;29.94;32.22;98930.34;4484910;32;20243;-74
2022/07/24 11:29:26;;;;;;;16.00;5.68;;;;;;;29.35;33.60;98923.91;4484772;31;20080;-74
2022/07/24 11:31:57;;;;;;;5.85;5.07;;;;;;;29.05;33.38;98922.53;4484530;32;20119;-74
2022/07/24 11:34:25;;;;;;;5.35;4.85;;;;;;;29.38;33.62;98913.41;4484769;31;20686;-74
2022/07/24 11:36:54;;;;;;;10.02;6.07;;;;;;;29.54;33.70;98917.06;4484791;31;20093;-74